createdAt,value
2023-05-22T00:02:19.499Z,346.27
2023-05-22T00:04:48.072Z,374.52
2023-05-22T00:07:15.834Z,358.33
2023-05-22T00:09:45.156Z,347.45
2023-05-22T00:12:13.010Z,337.55
2023-05-22T00:14:41.322Z,343.42
2023-05-22T00:17:10.199Z,342.05
2023-05-22T00:19:38.783Z,350.25
2023-05-22T00:22:06.664Z,340.38
2023-05-22T00:24:34.843Z,335.45
2023-05-22T00:27:04.032Z,321.00
2023-05-22T00:29:32.349Z,332.85
2023-05-22T00:32:00.250Z,333.45
2023-05-22T00:34:28.517Z,316.73
2023-05-22T00:36:56.344Z,327.90
2023-05-22T00:39:24.310Z,312.20
2023-05-22T00:41:52.065Z,331.60
2023-05-22T00:44:21.554Z,321.85
2023-05-22T00:46:49.400Z,312.77
2023-05-22T00:49:17.694Z,335.75
2023-05-22T00:51:45.750Z,324.42
2023-05-22T00:54:14.531Z,300.75
2023-05-22T00:56:43.013Z,317.15
2023-05-22T00:59:11.338Z,315.80
2023-05-22T01:01:42.892Z,306.33
2023-05-22T01:04:11.839Z,328.33
2023-05-22T01:06:41.642Z,326.00
2023-05-22T01:09:09.397Z,303.90
2023-05-22T01:11:44.717Z,309.13
2023-05-22T01:14:18.276Z,320.73
2023-05-22T01:16:54.954Z,294.10
2023-05-22T01:19:47.397Z,302.00
2023-05-22T01:22:31.680Z,296.50
2023-05-22T01:25:21.034Z,293.80
2023-05-22T01:28:04.157Z,293.35
2023-05-22T01:30:47.072Z,285.73
2023-05-22T01:33:18.044Z,278.02
2023-05-22T01:35:53.846Z,304.58
2023-05-22T01:38:22.788Z,298.02
2023-05-22T01:40:50.997Z,290.08
2023-05-22T01:43:19.568Z,287.75
2023-05-22T01:45:49.301Z,285.13
2023-05-22T01:48:17.334Z,285.92
2023-05-22T01:50:52.008Z,307.30
2023-05-22T01:53:25.196Z,281.77
2023-05-22T01:55:59.379Z,300.42
2023-05-22T01:58:35.188Z,300.02
2023-05-22T02:01:05.342Z,295.75
2023-05-22T02:03:36.014Z,307.67
2023-05-22T02:06:08.004Z,281.20
2023-05-22T02:08:38.828Z,293.50
2023-05-22T02:11:07.694Z,298.75
2023-05-22T02:13:36.087Z,304.20
2023-05-22T02:16:06.249Z,295.88
2023-05-22T02:18:34.106Z,292.42
2023-05-22T02:21:02.714Z,283.48
2023-05-22T02:23:33.529Z,282.63
2023-05-22T02:26:01.646Z,298.42
2023-05-22T02:28:29.556Z,297.95
2023-05-22T02:30:57.396Z,324.33
2023-05-22T02:33:26.940Z,290.00
2023-05-22T02:35:55.363Z,303.63
2023-05-22T02:38:24.693Z,301.20
2023-05-22T02:40:53.246Z,278.13
2023-05-22T02:43:21.983Z,312.17
2023-05-22T02:45:49.970Z,295.55
2023-05-22T02:48:18.520Z,291.95
2023-05-22T02:50:48.689Z,291.63
2023-05-22T02:53:17.421Z,300.90
2023-05-22T02:55:45.890Z,303.42
2023-05-22T02:58:15.026Z,298.27
2023-05-22T03:00:43.210Z,288.20
2023-05-22T03:03:11.784Z,296.15
2023-05-22T03:05:40.284Z,270.17
2023-05-22T03:08:10.127Z,300.25
2023-05-22T03:10:38.447Z,275.63
2023-05-22T03:13:06.330Z,281.27
2023-05-22T03:15:33.985Z,280.30
2023-05-22T03:18:10.849Z,290.58
2023-05-22T03:20:40.276Z,291.65
2023-05-22T03:23:08.471Z,287.20
2023-05-22T03:25:37.515Z,295.83
2023-05-22T03:28:05.840Z,284.95
2023-05-22T03:30:38.318Z,269.20
2023-05-22T03:33:15.705Z,301.50
2023-05-22T03:35:44.516Z,292.33
2023-05-22T03:38:12.817Z,290.90
2023-05-22T03:40:42.418Z,287.23
2023-05-22T03:43:11.269Z,282.85
2023-05-22T03:45:40.103Z,300.55
2023-05-22T03:48:08.105Z,298.80
2023-05-22T03:50:35.870Z,284.95
2023-05-22T03:53:03.550Z,287.55
2023-05-22T03:55:32.255Z,286.33
2023-05-22T03:58:01.285Z,272.77
2023-05-22T04:00:29.411Z,296.15
2023-05-22T04:02:58.699Z,289.38
2023-05-22T04:05:26.825Z,300.45
2023-05-22T04:07:54.895Z,298.40
2023-05-22T04:10:23.609Z,283.20
2023-05-22T04:12:52.094Z,272.10
2023-05-22T04:15:21.883Z,291.85
2023-05-22T04:17:50.023Z,288.80
2023-05-22T04:20:18.106Z,269.70
2023-05-22T04:22:46.702Z,283.70
2023-05-22T04:25:14.378Z,281.15
2023-05-22T04:27:42.454Z,280.25
2023-05-22T04:30:10.735Z,282.52
2023-05-22T04:32:41.598Z,273.25
2023-05-22T04:35:10.235Z,275.33
2023-05-22T04:37:40.755Z,282.23
2023-05-22T04:40:10.236Z,299.15
2023-05-22T04:42:38.402Z,283.00
2023-05-22T04:45:07.037Z,292.77
2023-05-22T04:47:35.119Z,278.02
2023-05-22T04:50:09.134Z,283.67
2023-05-22T04:52:37.818Z,315.85
2023-05-22T04:55:06.991Z,296.85
2023-05-22T04:57:34.848Z,319.55
2023-05-22T05:00:04.243Z,323.70
2023-05-22T05:02:33.773Z,304.92
2023-05-22T05:05:02.314Z,305.33
2023-05-22T05:07:31.373Z,308.10
2023-05-22T05:09:59.067Z,318.73
2023-05-22T05:12:28.188Z,322.17
2023-05-22T05:14:56.141Z,300.63
2023-05-22T05:17:24.120Z,308.30
2023-05-22T05:19:51.877Z,319.48
2023-05-22T05:22:19.684Z,311.13
2023-05-22T05:24:49.382Z,326.95
2023-05-22T05:27:17.833Z,336.60
2023-05-22T05:29:47.076Z,331.52
2023-05-22T05:32:24.520Z,334.13
2023-05-22T05:35:03.004Z,328.80
2023-05-22T05:37:44.741Z,313.30
2023-05-22T05:40:15.400Z,306.20
2023-05-22T05:42:48.750Z,320.40
2023-05-22T05:45:19.300Z,312.98
2023-05-22T05:47:47.381Z,328.75
2023-05-22T05:50:16.435Z,326.17
2023-05-22T05:52:44.497Z,344.38
2023-05-22T05:55:17.949Z,336.38
2023-05-22T05:57:45.723Z,363.98
2023-05-22T06:00:20.353Z,318.52
2023-05-22T06:02:50.734Z,336.25
2023-05-22T06:05:37.511Z,326.00
2023-05-22T06:08:28.441Z,335.23
2023-05-22T06:10:57.738Z,315.77
2023-05-22T06:13:38.723Z,326.13
2023-05-22T06:16:07.366Z,348.58
2023-05-22T06:18:35.882Z,320.60
2023-05-22T06:21:03.866Z,344.77
2023-05-22T06:23:32.360Z,342.05
2023-05-22T06:26:01.698Z,333.45
2023-05-22T06:28:29.918Z,359.42
2023-05-22T06:30:59.255Z,348.52
2023-05-22T06:33:28.942Z,367.48
2023-05-22T06:35:56.759Z,339.05
2023-05-22T06:38:24.582Z,361.65
2023-05-22T06:40:52.307Z,350.83
2023-05-22T06:43:25.818Z,363.10
2023-05-22T06:46:01.572Z,368.65
2023-05-22T06:48:51.161Z,337.45
2023-05-22T06:51:25.582Z,367.85
2023-05-22T06:53:59.810Z,355.60
2023-05-22T06:56:32.066Z,340.30
2023-05-22T06:59:12.696Z,322.70
2023-05-22T07:01:58.529Z,305.15
2023-05-22T07:04:43.583Z,308.80
2023-05-22T07:07:18.816Z,322.80
2023-05-22T07:09:46.915Z,376.30
2023-05-22T07:12:14.691Z,409.20
2023-05-22T07:14:43.862Z,418.13
2023-05-22T07:17:11.693Z,428.48
2023-05-22T07:19:43.816Z,451.23
2023-05-22T07:22:12.002Z,435.95
2023-05-22T07:24:40.774Z,484.85
2023-05-22T07:27:11.337Z,505.90
2023-05-22T07:29:39.827Z,500.90
2023-05-22T07:32:10.980Z,530.67
2023-05-22T07:34:38.938Z,486.83
2023-05-22T07:37:09.996Z,510.80
2023-05-22T07:39:37.982Z,513.03
2023-05-22T07:42:07.958Z,511.27
2023-05-22T07:44:42.255Z,517.10
2023-05-22T07:47:11.361Z,522.85
2023-05-22T07:49:40.185Z,533.42
2023-05-22T07:52:08.367Z,528.45
2023-05-22T07:54:36.425Z,525.80
2023-05-22T07:57:08.127Z,521.38
2023-05-22T07:59:39.953Z,508.77
2023-05-22T08:02:08.329Z,509.40
2023-05-22T08:04:37.762Z,499.23
2023-05-22T08:07:06.008Z,520.55
2023-05-22T08:09:33.825Z,481.48
2023-05-22T08:12:01.830Z,481.77
2023-05-22T08:14:29.698Z,475.80
2023-05-22T08:16:59.237Z,465.50
2023-05-22T08:19:27.123Z,436.75
2023-05-22T08:21:58.512Z,448.30
2023-05-22T08:24:28.400Z,436.83
2023-05-22T08:26:58.526Z,424.35
2023-05-22T08:29:26.516Z,446.25
2023-05-22T08:31:56.732Z,439.20
2023-05-22T08:34:25.119Z,435.13
2023-05-22T08:36:52.816Z,439.35
2023-05-22T08:39:22.250Z,427.60
2023-05-22T08:41:50.345Z,427.10
2023-05-22T08:44:19.656Z,436.00
2023-05-22T08:46:49.698Z,395.83
2023-05-22T08:49:25.306Z,427.58
2023-05-22T08:51:57.369Z,402.77
2023-05-22T08:54:27.912Z,389.13
2023-05-22T08:56:57.466Z,428.60
2023-05-22T08:59:25.745Z,409.95
2023-05-22T09:01:54.467Z,443.65
2023-05-22T09:04:24.069Z,431.63
2023-05-22T09:06:52.417Z,437.02
2023-05-22T09:09:20.211Z,458.02
2023-05-22T09:11:49.209Z,440.52
2023-05-22T09:14:17.011Z,426.83
2023-05-22T09:16:46.626Z,454.48
2023-05-22T09:19:15.073Z,438.75
2023-05-22T09:21:44.238Z,470.65
2023-05-22T09:24:12.846Z,446.67
2023-05-22T09:26:41.476Z,460.20
2023-05-22T09:29:11.028Z,455.38
2023-05-22T09:31:45.218Z,472.13
2023-05-22T09:34:15.655Z,456.17
2023-05-22T09:36:43.630Z,455.30
2023-05-22T09:39:11.700Z,461.65
2023-05-22T09:41:41.071Z,428.60
2023-05-22T09:44:15.344Z,442.45
2023-05-22T09:46:45.329Z,442.67
2023-05-22T09:49:16.138Z,421.60
2023-05-22T09:51:47.869Z,447.38
2023-05-22T09:54:17.767Z,451.85
2023-05-22T09:56:48.182Z,457.27
2023-05-22T09:59:22.073Z,423.02
2023-05-22T10:01:51.331Z,464.40
2023-05-22T10:04:19.803Z,427.85
2023-05-22T10:06:51.861Z,464.67
2023-05-22T10:09:22.762Z,469.85
2023-05-22T10:11:54.627Z,432.95
2023-05-22T10:14:25.767Z,441.83
2023-05-22T10:16:56.752Z,462.52
2023-05-22T10:19:28.396Z,443.80
2023-05-22T10:21:57.775Z,450.08
2023-05-22T10:24:26.378Z,468.40
2023-05-22T10:26:54.975Z,450.35
2023-05-22T10:29:32.140Z,447.67
2023-05-22T10:32:10.364Z,416.45
2023-05-22T10:34:55.208Z,429.83
2023-05-22T10:37:37.291Z,435.33
2023-05-22T10:40:09.872Z,412.98
2023-05-22T10:42:38.904Z,399.05
2023-05-22T10:45:12.062Z,423.80
2023-05-22T10:47:41.228Z,415.05
2023-05-22T10:50:10.969Z,406.77
2023-05-22T10:52:39.922Z,414.13
2023-05-22T10:55:09.236Z,416.88
2023-05-22T10:57:38.971Z,400.52
2023-05-22T11:00:13.814Z,427.10
2023-05-22T11:02:44.477Z,438.02
2023-05-22T11:05:37.467Z,419.35
2023-05-22T11:08:39.403Z,386.77
2023-05-22T11:11:16.286Z,400.65
2023-05-22T11:13:44.089Z,400.88
2023-05-22T11:16:13.694Z,403.08
2023-05-22T11:18:41.777Z,425.70
2023-05-22T11:21:13.652Z,432.98
2023-05-22T11:23:42.567Z,404.30
2023-05-22T11:26:22.235Z,456.58
2023-05-22T11:28:51.949Z,441.42
2023-05-22T11:31:23.061Z,419.17
2023-05-22T11:33:50.984Z,440.88
2023-05-22T11:36:19.448Z,420.88
2023-05-22T11:38:47.532Z,420.98
2023-05-22T11:41:17.096Z,436.02
2023-05-22T11:43:45.530Z,423.23
2023-05-22T11:46:14.117Z,439.02
2023-05-22T11:48:44.003Z,416.98
2023-05-22T11:51:12.125Z,448.45
2023-05-22T11:53:42.339Z,440.77
2023-05-22T11:56:10.474Z,419.20
2023-05-22T11:58:38.257Z,424.35
2023-05-22T12:01:07.280Z,453.27
2023-05-22T12:03:35.714Z,436.98
2023-05-22T12:06:06.179Z,467.77
2023-05-22T12:08:34.041Z,461.40
2023-05-22T12:11:05.615Z,462.52
2023-05-22T12:13:33.578Z,447.33
2023-05-22T12:16:01.808Z,446.27
2023-05-22T12:18:37.109Z,449.00
2023-05-22T12:21:08.844Z,485.55
2023-05-22T12:23:36.599Z,469.17
2023-05-22T12:26:10.066Z,490.45
2023-05-22T12:28:39.606Z,518.33
2023-05-22T12:31:07.564Z,521.97
2023-05-22T12:33:35.379Z,508.33
2023-05-22T12:36:10.402Z,512.03
2023-05-22T12:38:39.483Z,523.08
2023-05-22T12:41:07.868Z,502.45
2023-05-22T12:43:35.610Z,503.27
2023-05-22T12:46:03.358Z,507.92
2023-05-22T12:48:31.216Z,497.95
2023-05-22T12:50:59.182Z,503.33
2023-05-22T12:53:28.220Z,517.30
2023-05-22T12:55:56.359Z,488.83
2023-05-22T12:58:24.120Z,513.65
2023-05-22T13:00:51.996Z,508.25
2023-05-22T13:03:19.717Z,493.92
2023-05-22T13:05:47.603Z,482.20
2023-05-22T13:08:15.378Z,514.22
2023-05-22T13:10:44.702Z,524.40
2023-05-22T13:13:12.450Z,504.45
2023-05-22T13:15:40.645Z,512.63
2023-05-22T13:18:08.667Z,514.53
2023-05-22T13:20:37.533Z,525.72
2023-05-22T13:23:05.745Z,519.35
2023-05-22T13:25:33.734Z,520.22
2023-05-22T13:28:03.540Z,537.17
2023-05-22T13:30:32.302Z,538.05
2023-05-22T13:33:00.117Z,549.30
2023-05-22T13:35:28.376Z,537.78
2023-05-22T13:37:56.100Z,534.75
2023-05-22T13:40:24.288Z,528.10
2023-05-22T13:42:52.670Z,537.90
2023-05-22T13:45:22.104Z,533.80
2023-05-22T13:47:50.620Z,532.97
2023-05-22T13:50:18.525Z,518.17
2023-05-22T13:52:46.445Z,546.40
2023-05-22T13:55:14.571Z,559.85
2023-05-22T13:57:42.331Z,517.83
2023-05-22T14:00:10.994Z,548.03
2023-05-22T14:02:40.431Z,543.60
2023-05-22T14:05:09.330Z,541.10
2023-05-22T14:07:37.192Z,552.15
2023-05-22T14:10:05.351Z,544.20
2023-05-22T14:12:33.169Z,553.63
2023-05-22T14:15:01.050Z,533.10
2023-05-22T14:17:30.079Z,542.10
2023-05-22T14:19:59.748Z,550.65
2023-05-22T14:22:27.476Z,534.30
2023-05-22T14:24:55.132Z,548.95
2023-05-22T14:27:23.068Z,545.13
2023-05-22T14:29:50.755Z,534.33
2023-05-22T14:32:18.541Z,547.53
2023-05-22T14:34:46.277Z,548.08
2023-05-22T14:37:15.627Z,554.15
2023-05-22T14:39:43.339Z,527.05
2023-05-22T14:42:11.293Z,516.17
2023-05-22T14:44:38.930Z,538.95
2023-05-22T14:47:07.069Z,537.75
2023-05-22T14:49:34.739Z,529.45
2023-05-22T14:52:02.875Z,537.72
2023-05-22T14:54:31.910Z,520.00
2023-05-22T14:56:59.970Z,501.23
2023-05-22T14:59:27.581Z,491.58
2023-05-22T15:01:55.516Z,502.08
2023-05-22T15:04:24.683Z,503.60
2023-05-22T15:06:52.637Z,477.35
2023-05-22T15:09:20.326Z,486.75
2023-05-22T15:11:51.234Z,454.88
2023-05-22T15:14:19.117Z,486.58
2023-05-22T15:16:47.340Z,466.40
2023-05-22T15:19:15.162Z,494.23
2023-05-22T15:21:43.502Z,442.83
2023-05-22T15:24:11.454Z,425.08
2023-05-22T15:26:39.140Z,432.85
2023-05-22T15:29:08.106Z,420.20
2023-05-22T15:31:36.143Z,400.00
2023-05-22T15:34:04.484Z,372.70
2023-05-22T15:36:33.245Z,345.73
2023-05-22T15:39:00.948Z,372.70
2023-05-22T15:41:28.646Z,407.73
2023-05-22T15:43:56.757Z,425.50
2023-05-22T15:46:25.793Z,453.10
2023-05-22T15:48:53.512Z,490.58
2023-05-22T15:51:21.177Z,462.17
2023-05-22T15:53:50.949Z,450.40
2023-05-22T15:56:18.609Z,376.48
2023-05-22T15:58:46.322Z,391.73
2023-05-22T16:01:13.978Z,362.95
2023-05-22T16:03:43.568Z,335.63
2023-05-22T16:06:11.297Z,333.52
2023-05-22T16:08:39.130Z,344.10
2023-05-22T16:11:06.990Z,354.30
2023-05-22T16:13:34.849Z,351.05
2023-05-22T16:16:03.254Z,370.98
2023-05-22T16:18:31.384Z,381.40
2023-05-22T16:21:00.386Z,372.15
2023-05-22T16:23:28.410Z,386.85
2023-05-22T16:25:56.111Z,401.45
2023-05-22T16:28:24.087Z,413.15
2023-05-22T16:30:51.738Z,389.48
2023-05-22T16:33:19.431Z,369.98
2023-05-22T16:35:47.190Z,379.55
2023-05-22T16:38:16.668Z,400.42
2023-05-22T16:40:44.348Z,385.15
2023-05-22T16:43:14.359Z,403.63
2023-05-22T16:45:46.415Z,385.63
2023-05-22T16:48:14.699Z,388.55
2023-05-22T16:50:43.685Z,402.38
2023-05-22T16:53:11.721Z,395.33
2023-05-22T16:55:40.965Z,386.60
2023-05-22T16:58:11.426Z,420.58
2023-05-22T17:00:40.509Z,382.92
2023-05-22T17:03:10.167Z,404.88
2023-05-22T17:05:38.779Z,411.30
2023-05-22T17:08:06.846Z,403.25
2023-05-22T17:10:34.732Z,379.63
2023-05-22T17:13:03.680Z,405.33
2023-05-22T17:15:32.353Z,404.17
2023-05-22T17:18:00.203Z,407.33
2023-05-22T17:20:29.599Z,433.17
2023-05-22T17:22:57.292Z,406.90
2023-05-22T17:25:25.856Z,401.63
2023-05-22T17:27:53.507Z,419.25
2023-05-22T17:30:23.087Z,427.92
2023-05-22T17:32:53.287Z,407.15
2023-05-22T17:35:21.766Z,458.48
2023-05-22T17:37:49.595Z,404.13
2023-05-22T17:40:18.216Z,450.13
2023-05-22T17:42:46.280Z,398.52
2023-05-22T17:45:14.326Z,431.95
2023-05-22T17:47:43.436Z,457.75
2023-05-22T17:50:12.636Z,422.08
2023-05-22T17:52:40.922Z,429.95
2023-05-22T17:55:09.967Z,422.67
2023-05-22T17:57:37.650Z,418.38
2023-05-22T18:00:09.777Z,418.33
2023-05-22T18:02:40.278Z,440.85
2023-05-22T18:05:11.113Z,444.13
2023-05-22T18:07:38.740Z,408.98
2023-05-22T18:10:07.993Z,416.25
2023-05-22T18:12:38.169Z,424.15
2023-05-22T18:15:08.621Z,420.13
2023-05-22T18:17:36.506Z,417.88
2023-05-22T18:20:06.386Z,448.92
2023-05-22T18:22:35.740Z,432.42
2023-05-22T18:25:03.688Z,420.65
2023-05-22T18:27:32.078Z,411.23
2023-05-22T18:29:59.820Z,439.33
2023-05-22T18:32:27.477Z,437.00
2023-05-22T18:34:55.428Z,445.92
2023-05-22T18:37:23.258Z,412.75
2023-05-22T18:39:52.497Z,436.35
2023-05-22T18:42:20.331Z,400.67
2023-05-22T18:44:49.177Z,410.05
2023-05-22T18:47:17.059Z,401.52
2023-05-22T18:49:45.423Z,419.70
2023-05-22T18:52:13.627Z,435.60
2023-05-22T18:54:41.361Z,399.25
2023-05-22T18:57:10.696Z,416.35
2023-05-22T18:59:38.538Z,396.25
2023-05-22T19:02:06.898Z,451.58
2023-05-22T19:04:34.659Z,401.58
2023-05-22T19:07:02.545Z,421.63
2023-05-22T19:09:30.226Z,384.55
2023-05-22T19:11:58.077Z,427.40
2023-05-22T19:14:27.049Z,429.92
2023-05-22T19:16:55.078Z,413.63
2023-05-22T19:19:22.847Z,420.40
2023-05-22T19:21:50.696Z,411.73
2023-05-22T19:24:18.328Z,407.50
2023-05-22T19:26:46.249Z,420.75
2023-05-22T19:29:13.924Z,404.40
2023-05-22T19:31:43.042Z,437.45
2023-05-22T19:34:10.832Z,424.58
2023-05-22T19:36:38.671Z,408.60
2023-05-22T19:39:06.345Z,396.63
2023-05-22T19:41:34.298Z,393.30
2023-05-22T19:44:01.990Z,427.52
2023-05-22T19:46:29.809Z,401.65
2023-05-22T19:48:59.076Z,390.58
2023-05-22T19:51:28.097Z,399.30
2023-05-22T19:53:55.754Z,428.20
2023-05-22T19:56:23.419Z,384.83
2023-05-22T19:58:51.100Z,413.02
2023-05-22T20:01:18.764Z,394.75
2023-05-22T20:03:46.685Z,379.35
2023-05-22T20:06:16.350Z,401.42
2023-05-22T20:08:44.238Z,397.45
2023-05-22T20:11:11.892Z,403.38
2023-05-22T20:13:39.596Z,421.75
2023-05-22T20:16:12.117Z,408.42
2023-05-22T20:18:40.925Z,398.77
2023-05-22T20:21:08.841Z,399.83
2023-05-22T20:23:40.047Z,415.98
2023-05-22T20:26:07.721Z,397.38
2023-05-22T20:28:35.492Z,400.92
2023-05-22T20:31:04.127Z,381.00
2023-05-22T20:33:31.975Z,409.80
2023-05-22T20:36:01.105Z,403.08
2023-05-22T20:38:29.923Z,399.48
2023-05-22T20:40:59.618Z,376.70
2023-05-22T20:43:30.294Z,402.17
2023-05-22T20:45:58.338Z,400.08
2023-05-22T20:48:26.098Z,412.88
2023-05-22T20:50:53.912Z,430.60
2023-05-22T20:53:21.840Z,395.35
2023-05-22T20:55:49.466Z,414.35
2023-05-22T20:58:19.802Z,385.23
2023-05-22T21:00:49.300Z,402.08
2023-05-22T21:03:17.930Z,400.15
2023-05-22T21:05:45.608Z,379.13
2023-05-22T21:08:13.498Z,402.85
2023-05-22T21:10:41.394Z,397.35
2023-05-22T21:13:09.502Z,393.77
2023-05-22T21:15:38.692Z,389.50
2023-05-22T21:18:07.083Z,426.83
2023-05-22T21:20:34.862Z,412.33
2023-05-22T21:23:02.723Z,424.77
2023-05-22T21:25:30.623Z,375.00
2023-05-22T21:27:58.411Z,398.77
2023-05-22T21:30:26.173Z,392.90
2023-05-22T21:32:55.527Z,394.58
2023-05-22T21:35:23.417Z,403.60
2023-05-22T21:37:51.323Z,398.30
2023-05-22T21:40:19.157Z,413.17
2023-05-22T21:42:47.606Z,413.63
2023-05-22T21:45:15.507Z,383.52
2023-05-22T21:47:43.831Z,409.85
2023-05-22T21:50:13.030Z,400.35
2023-05-22T21:52:40.736Z,379.02
2023-05-22T21:55:09.269Z,381.27
2023-05-22T21:57:37.403Z,410.52
2023-05-22T22:00:05.512Z,406.65
2023-05-22T22:02:33.140Z,405.95
2023-05-22T22:05:01.239Z,386.50
2023-05-22T22:07:30.230Z,383.80
2023-05-22T22:09:59.501Z,394.90
2023-05-22T22:12:27.134Z,372.20
2023-05-22T22:14:55.136Z,383.50
2023-05-22T22:17:25.449Z,395.23
2023-05-22T22:19:57.224Z,389.55
2023-05-22T22:22:25.793Z,401.70
2023-05-22T22:24:54.924Z,384.80
2023-05-22T22:27:22.595Z,364.05
2023-05-22T22:29:50.692Z,403.40
2023-05-22T22:32:18.469Z,401.52
2023-05-22T22:34:46.462Z,397.92
2023-05-22T22:37:14.724Z,370.08
2023-05-22T22:39:42.692Z,379.77
2023-05-22T22:42:11.685Z,376.27
2023-05-22T22:44:39.723Z,377.48
2023-05-22T22:47:07.860Z,376.73
2023-05-22T22:49:37.373Z,383.10
2023-05-22T22:52:05.384Z,407.95
2023-05-22T22:54:33.464Z,417.58
2023-05-22T22:57:01.170Z,376.60
2023-05-22T22:59:30.484Z,405.05
2023-05-22T23:01:58.204Z,411.38
2023-05-22T23:04:28.335Z,401.83
2023-05-22T23:06:57.515Z,393.33
2023-05-22T23:09:25.660Z,367.73
2023-05-22T23:11:53.292Z,361.77
2023-05-22T23:14:21.223Z,385.13
2023-05-22T23:16:50.178Z,383.92
2023-05-22T23:19:18.319Z,386.45
2023-05-22T23:21:46.027Z,390.25
2023-05-22T23:24:14.301Z,385.63
2023-05-22T23:26:41.911Z,386.67
2023-05-22T23:29:09.560Z,378.02
2023-05-22T23:31:37.538Z,369.52
2023-05-22T23:34:06.671Z,374.83
2023-05-22T23:36:34.969Z,387.35
2023-05-22T23:39:02.633Z,394.65
2023-05-22T23:41:31.117Z,382.50
2023-05-22T23:43:58.764Z,388.60
2023-05-22T23:46:26.937Z,398.45
2023-05-22T23:48:54.582Z,400.58
2023-05-22T23:51:23.783Z,394.60
2023-05-22T23:53:51.484Z,380.98
2023-05-22T23:56:19.526Z,390.27
2023-05-22T23:58:47.142Z,380.77
